• Join FlightAware (Why Join?)
  • Login
  • US Flag 
06:57PM EDT


 

Airport Tracker/Info


-or-


 

Live Flight TrackerFlight Track Log ✈ N50KC ✈ 18-Jul-2013 ✈ KOXC - KSUN

Flight Track Log - Related Links

Times and Time Zones

All times are in EDT time to prevent confusion due to time zone crossing. See the N50KC flight status page for this flight to view local times or setup timezone preferences in your user account.

Time Position Orientation Groundspeed Altitude Reporting Facility
EDT Latitude Longitude Course Direction KTS MPH feet Rate Location/Type
06:43AM 41.4333 -73.1167 10° North 191 220 2,800  Level New York TRACON
06:43AM 41.4000 -73.1125 175° South 220 253 3,200 1,800 Climbing Boston Center
06:44AM 41.3714 -73.0292 115° Southeast 281 323 5,900 1,620 Climbing Boston Center
06:45AM 41.4425 -73.0022 16° North 305 351 7,000 2,160 Climbing Boston Center
06:46AM 41.5217 -72.9975 North 276 318 10,700 2,400 Climbing Boston Center
06:47AM 42.0554 -72.9945 10° North  Level FlightAware Approximate
06:47AM 41.6069 -73.0119 353° North 300 345 11,900  Level Boston Center
06:48AM 42.1742 -72.9648 10° North  Level FlightAware Approximate
06:48AM 41.7194 -73.0381 350° North 364 419 15,200  Level Boston Center
06:49AM 41.8131 -73.0611 350° North 379 436 17,700 2,400 Climbing Boston Center
06:50AM 41.9317 -73.0931 349° North 385 443 20,100 2,400 Climbing Boston Center
06:51AM 42.0483 -73.1194 350° North 401 461 22,500 1,800 Climbing Boston Center
06:52AM 42.1669 -73.1489 350° North 417 480 23,700 1,560 Climbing Boston Center
06:53AM 42.2789 -73.2172 336° Northwest 434 499 25,700 1,920 Climbing Boston Center
06:54AM 42.3319 -73.3614 297° West 409 471 27,600 1,800 Climbing Boston Center
06:55AM 42.3511 -73.5469 278° West 416 479 29,300 2,100 Climbing Boston Center
06:56AM 42.3703 -73.7244 278° West 448 516 31,900 2,460 Climbing Boston Center
06:57AM 42.3911 -73.8964 279° West 461 531 34,300 2,700 Climbing Boston Center
06:58AM 42.4097 -74.0656 279° West 467 537 37,300 2,580 Climbing Boston Center
06:59AM 42.4281 -74.2233 279° West 456 525 39,500 1,740 Climbing Boston Center
07:01AM 42.4464 -74.3844 279° West 446 513 41,200 1,500 Climbing Boston Center
07:02AM 42.4617 -74.5706 276° West 429 494 42,800 1,320 Climbing Boston Center
07:03AM 42.4794 -74.7289 279° West 429 494 43,900 780 Climbing Boston Center
07:04AM 42.4950 -74.8872 278° West 429 494 44,400 480 Climbing Boston Center
07:05AM 42.5122 -75.0483 278° West 429 494 44,900 300 Climbing Boston Center
07:06AM 42.5292 -75.2125 278° West 434 499 45,000  Climbing Boston Center
07:07AM 42.5439 -75.3739 277° West 434 499 45,000  Level Boston Center
07:08AM 42.5606 -75.5325 278° West 434 499 45,000  Level Boston Center
07:09AM 42.5767 -75.6997 278° West 434 499 45,000  Level Boston Center
07:10AM 42.5947 -75.8642 279° West 439 505 45,000  Level Boston Center
07:11AM 42.6167 -76.1167 277° West 440 506 45,000  Level Toronto Center
07:12AM 42.6333 -76.3000 277° West 450 518 45,000  Level Toronto Center
07:13AM 42.6333 -76.4667 270° West 440 506 45,000  Level Toronto Center
07:14AM 42.6500 -76.6167 279° West 440 506 45,000  Level Toronto Center
07:15AM 42.6667 -76.8000 277° West 440 506 45,000  Level Toronto Center
07:16AM 42.6833 -76.9500 279° West 440 506 45,000  Level Toronto Center
07:17AM 42.7000 -77.1167 278° West 440 506 45,000  Level Toronto Center
07:18AM 42.7000 -77.3000 270° West 440 506 45,000  Level Toronto Center
07:19AM 42.7333 -77.4500 287° West 440 506 45,000  Level Toronto Center
07:20AM 42.7500 -77.6333 277° West 440 506 45,000  Level Toronto Center
07:21AM 42.7500 -77.8000 270° West 450 518 45,000  Level Toronto Center
07:22AM 42.7667 -77.9500 279° West 450 518 45,000  Level Toronto Center
07:23AM 42.7667 -78.1333 270° West 450 518 45,000  Level Toronto Center
07:24AM 42.7833 -78.3000 278° West 440 506 45,000  Level Toronto Center
07:25AM 42.8000 -78.4500 279° West 440 506 45,000  Level Toronto Center
07:26AM 42.8167 -78.6333 277° West 450 518 45,000  Level Toronto Center
07:27AM 42.8333 -78.8000 278° West 450 518 45,000  Level Toronto Center
07:28AM 42.8333 -78.9667 270° West 450 518 45,000  Level Toronto Center
07:29AM 42.8500 -79.1333 278° West 450 518 45,000  Level Toronto Center
07:30AM 42.8667 -79.3167 277° West 450 518 45,000  Level Toronto Center
07:31AM 42.8667 -79.4667 270° West 460 529 45,000  Level Toronto Center
07:32AM 42.8833 -79.6500 277° West 450 518 45,000  Level Toronto Center
07:33AM 42.8833 -79.8167 270° West 450 518 45,100 300 Climbing Toronto Center
07:34AM 42.9000 -80.0000 277° West 450 518 45,600 480 Climbing Toronto Center
07:35AM 42.9167 -80.1500 279° West 450 518 46,100 480 Climbing Toronto Center
07:36AM 42.9167 -80.3333 270° West 450 518 46,600 420 Climbing Toronto Center
07:37AM 42.9333 -80.5000 278° West 450 518 47,000 180 Climbing Toronto Center
07:38AM 42.9500 -80.6833 277° West 450 518 47,000  Level Toronto Center
07:39AM 42.9333 -80.8333 261° West 450 518 47,000  Level Toronto Center
07:40AM 42.9500 -81.0000 278° West 450 518 47,000  Level Toronto Center
07:41AM 42.9500 -81.1833 270° West 450 518 47,000  Level Toronto Center
07:42AM 42.9667 -81.3500 278° West 450 518 47,000  Level Toronto Center
07:43AM 42.9833 -81.5167 278° West 450 518 47,000  Level Toronto Center
07:44AM 42.9833 -81.6833 270° West 450 518 47,000  Level Toronto Center
07:45AM 43.0000 -81.8667 277° West 450 518 47,000  Level Toronto Center
07:46AM 43.0000 -82.0333 270° West 450 518 47,000  Level Toronto Center
07:47AM 43.0000 -82.2167 270° West 450 518 47,000  Level Toronto Center
07:48AM 43.0167 -82.3667 279° West 450 518 47,000  Level Toronto Center
07:49AM 43.0333 -82.5500 277° West 450 518 47,000  Level Toronto Center
07:50AM 43.0167 -82.7333 263° West 450 518 47,000  Level Toronto Center
07:51AM 43.0333 -82.9000 278° West 450 518 47,000  Level Toronto Center
07:52AM 43.0333 -83.0833 270° West 450 518 47,000  Level Toronto Center
07:53AM 43.0333 -83.2333 270° West 450 518 47,000  Level Toronto Center
07:54AM 43.0500 -83.4000 278° West 450 518 47,000  Level Toronto Center
07:55AM 43.0500 -83.5833 270° West 450 518 47,000  Level Toronto Center
07:56AM 43.0500 -83.7333 270° West 450 518 47,000  Level Toronto Center
07:57AM 43.0667 -83.9167 277° West 450 518 47,000  Level Toronto Center
07:58AM 43.0667 -84.0833 270° West 450 518 47,000  Level Toronto Center
07:59AM 43.0667 -84.2667 270° West 450 518 47,000  Level Toronto Center
08:00AM 43.0667 -84.4500 270° West 460 529 47,000  Level Toronto Center
08:01AM 43.0667 -84.6167 270° West 460 529 47,000  Level Toronto Center
08:02AM 43.0833 -84.8000 277° West 460 529 47,000  Level Toronto Center
08:03AM 43.0667 -84.9500 261° West 460 529 47,000  Level Toronto Center
08:04AM 43.0833 -85.1333 277° West 460 529 47,000  Level Toronto Center
08:05AM 43.0833 -85.3167 270° West 470 541 47,000  Level Toronto Center
08:06AM 43.0833 -85.4833 270° West 450 518 47,000  Level Toronto Center
08:07AM 43.0833 -85.6667 270° West 470 541 47,000  Level Toronto Center
08:09AM 43.1042 -85.8525 279° West 452 520 47,000  Level Minneapolis Center
08:10AM 43.1019 -86.0333 269° West 458 527 47,000  Level Minneapolis Center
08:11AM 43.1053 -86.2314 271° West 466 536 47,000  Level Minneapolis Center
08:12AM 43.1044 -86.3992 270° West 455 524 47,000  Level Minneapolis Center
08:13AM 43.1044 -86.5714 270° West 454 522 47,000  Level Minneapolis Center
08:14AM 43.1044 -86.7447 270° West 456 525 47,000  Level Minneapolis Center
08:15AM 43.1031 -86.9519 270° West 456 525 47,000  Level Minneapolis Center
08:16AM 43.1022 -87.1253 270° West 456 525 47,000  Level Minneapolis Center
08:17AM 43.1017 -87.2975 270° West 455 524 47,000  Level Minneapolis Center
08:18AM 43.0997 -87.4689 269° West 455 524 47,000  Level Minneapolis Center
08:19AM 43.0992 -87.6428 270° West 456 525 47,000  Level Minneapolis Center
08:20AM 43.0967 -87.8467 269° West 458 527 47,000  Level Minneapolis Center
08:21AM 43.0947 -88.0222 269° West 459 528 47,000  Level Minneapolis Center
08:22AM 43.0922 -88.1983 269° West 460 529 47,000  Level Minneapolis Center
08:23AM 43.0889 -88.3739 269° West 458 527 47,000  Level Minneapolis Center
08:24AM 43.0872 -88.5517 269° West 462 532 47,000  Level Minneapolis Center
08:25AM 43.0850 -88.7289 269° West 463 533 47,000  Level Minneapolis Center
08:26AM 43.0811 -88.9067 268° West 463 533 47,000  Level Minneapolis Center
08:27AM 43.0775 -89.0833 268° West 462 532 47,000  Level Minneapolis Center
08:28AM 43.0739 -89.2892 269° West 463 533 47,000  Level Minneapolis Center
08:29AM 43.0700 -89.4644 268° West 462 532 47,000  Level Minneapolis Center
08:30AM 43.0639 -89.6406 267° West 463 533 47,000  Level Minneapolis Center
08:31AM 43.0592 -89.8181 268° West 466 536 47,000  Level Minneapolis Center
08:32AM 43.0536 -89.9939 268° West 463 533 47,000  Level Minneapolis Center
08:33AM 43.0489 -90.1706 268° West 464 534 47,000  Level Minneapolis Center
08:34AM 43.0428 -90.3697 268° West 463 533 47,000  Level Minneapolis Center
08:35AM 43.0369 -90.5433 267° West 463 533 47,000  Level Minneapolis Center
08:37AM 43.0311 -90.7161 267° West 462 532 47,000  Level Minneapolis Center
08:38AM 43.0261 -90.8886 268° West 461 531 47,000  Level Minneapolis Center
08:39AM 43.0197 -91.0631 267° West 463 533 47,000  Level Minneapolis Center
08:40AM 43.0114 -91.3061 267° West 463 533 47,000  Level Chicago Center
08:41AM 43.0075 -91.4433 268° West 465 535 47,000  Level Minneapolis Center
08:42AM 43.0017 -91.6169 267° West 468 539 47,000  Level Minneapolis Center
08:43AM 42.9897 -91.7900 265° West 470 541 47,000  Level Minneapolis Center
08:44AM 42.9814 -92.0008 267° West 472 543 47,000  Level Minneapolis Center
08:45AM 42.9722 -92.1742 266° West 469 540 47,000  Level Minneapolis Center
08:46AM 42.9628 -92.3469 266° West 465 535 47,000  Level Minneapolis Center
08:47AM 42.9539 -92.5217 266° West 468 539 47,000  Level Minneapolis Center
08:48AM 42.9433 -92.7303 266° West 465 535 47,000  Level Minneapolis Center
08:49AM 42.9339 -92.9036 266° West 463 533 47,000  Level Minneapolis Center
08:50AM 42.9244 -93.0761 266° West 462 532 47,000  Level Minneapolis Center
08:51AM 42.9139 -93.2478 265° West 460 529 47,000  Level Minneapolis Center
08:52AM 42.9042 -93.4225 266° West 463 533 47,000  Level Minneapolis Center
08:53AM 42.8939 -93.6261 266° West 454 522 47,000  Level Minneapolis Center
08:54AM 42.8825 -93.7975 265° West 456 525 47,000  Level Minneapolis Center
08:55AM 42.8719 -93.9692 265° West 459 528 47,000  Level Minneapolis Center
08:56AM 42.8614 -94.1428 265° West 463 533 47,000  Level Minneapolis Center
08:57AM 42.8497 -94.3156 265° West 461 531 47,000  Level Minneapolis Center
08:58AM 42.8372 -94.4886 264° West 462 532 47,000  Level Minneapolis Center
08:59AM 42.8239 -94.6825 265° West 457 526 47,000  Level Minneapolis Center
09:00AM 42.8114 -94.8561 264° West 458 527 47,000  Level Minneapolis Center
09:01AM 42.7981 -95.0322 264° West 466 536 47,000  Level Minneapolis Center
09:02AM 42.7825 -95.2436 264° West 468 539 47,000  Level Minneapolis Center
09:03AM 42.7692 -95.4183 264° West 466 536 47,000  Level Minneapolis Center
09:04AM 42.7558 -95.5947 264° West 467 537 47,000  Level Minneapolis Center
09:05AM 42.7422 -95.7678 264° West 462 532 47,000  Level Minneapolis Center
09:06AM 42.7275 -95.9436 264° West 466 536 47,000  Level Minneapolis Center
09:07AM 42.7136 -96.1169 264° West 463 533 47,000  Level Minneapolis Center
09:08AM 42.6989 -96.2933 264° West 459 528 47,000  Level Minneapolis Center
09:10AM 42.6844 -96.4672 264° West 463 533 47,000  Level Minneapolis Center
09:11AM 42.6661 -96.6756 263° West 465 535 47,000  Level Minneapolis Center
09:12AM 42.6503 -96.8486 263° West 464 534 47,000  Level Minneapolis Center
09:13AM 42.6350 -97.0211 263° West 463 533 47,000  Level Minneapolis Center
09:14AM 42.6208 -97.1889 264° West 458 527 47,000  Level Minneapolis Center
09:15AM 42.6039 -97.3594 262° West 458 527 47,000  Level Minneapolis Center
09:16AM 42.5875 -97.5294 263° West 457 526 47,000  Level Minneapolis Center
09:17AM 42.5675 -97.7350 263° West 458 527 47,000  Level Minneapolis Center
09:18AM 42.5497 -97.9119 262° West 460 529 47,000  Level Minneapolis Center
09:19AM 42.5342 -98.0842 263° West 461 531 47,000  Level Minneapolis Center
09:20AM 42.5158 -98.2558 262° West 461 531 47,000  Level Minneapolis Center
09:21AM 42.4981 -98.4286 262° West 464 534 47,000  Level Minneapolis Center
09:22AM 42.4797 -98.6003 262° West 463 533 47,000  Level Minneapolis Center
09:23AM 42.4608 -98.8064 263° West 462 532 47,000  Level Minneapolis Center
09:24AM 42.4594 -98.9767 269° West 457 526 47,000  Level Minneapolis Center
09:25AM 42.4764 -99.1472 278° West 457 526 47,000  Level Minneapolis Center
09:26AM 42.4944 -99.3156 278° West 454 522 47,000  Level Minneapolis Center
09:27AM 42.5128 -99.4853 278° West 455 524 47,000  Level Minneapolis Center
09:28AM 42.5303 -99.6553 278° West 456 525 47,000  Level Minneapolis Center
09:29AM 42.5522 -99.8558 279° West 451 519 47,000  Level Minneapolis Center
09:30AM 42.5692 -100.0233 278° West 449 517 47,000  Level Minneapolis Center
09:31AM 42.5858 -100.1917 278° West 450 518 47,000  Level Minneapolis Center
09:32AM 42.6014 -100.3594 277° West 448 516 47,000  Level Minneapolis Center
09:33AM 42.6181 -100.5278 278° West 450 518 47,000  Level Minneapolis Center
09:34AM 42.6347 -100.6950 278° West 449 517 47,000  Level Minneapolis Center
09:35AM 42.6500 -100.8642 277° West 450 518 47,000  Level Minneapolis Center
09:36AM 42.6689 -101.0650 277° West 450 518 47,000  Level Minneapolis Center
09:37AM 42.6839 -101.2328 277° West 448 516 47,000  Level Minneapolis Center
09:38AM 42.6992 -101.4017 277° West 450 518 47,000  Level Minneapolis Center
09:39AM 42.7142 -101.5703 277° West 449 517 47,000  Level Minneapolis Center
09:41AM 42.7311 -101.7614 277° West 450 518 47,000  Level Minneapolis Center
09:42AM 42.7472 -101.9506 277° West 445 512 47,000  Level Denver Center
09:43AM 42.7606 -102.1094 277° West 444 511 47,000  Level Denver Center
09:44AM 42.7736 -102.2683 276° West 441 507 47,000  Level Denver Center
09:45AM 42.7886 -102.4536 276° West 441 507 47,000  Level Denver Center
09:46AM 42.8011 -102.6133 276° West 445 512 47,000  Level Denver Center
09:47AM 42.8158 -102.7983 276° West 443 510 47,000  Level Denver Center
09:48AM 42.8281 -102.9567 276° West 440 506 47,000  Level Denver Center
09:49AM 42.8394 -103.1150 276° West 439 505 47,000  Level Denver Center
09:50AM 42.8539 -103.3006 276° West 442 509 47,000  Level Denver Center
09:51AM 42.8650 -103.4581 276° West 438 504 47,000  Level Denver Center
09:52AM 42.8783 -103.6428 276° West 439 505 47,000  Level Denver Center
09:53AM 42.8900 -103.8014 276° West 441 507 47,000  Level Denver Center
09:54AM 42.9025 -103.9861 275° West 441 507 47,000  Level Denver Center
09:55AM 42.9136 -104.1442 276° West 440 506 47,000  Level Denver Center
09:56AM 42.9236 -104.3036 275° West 442 509 47,000  Level Denver Center
09:57AM 42.9353 -104.4875 275° West 441 507 47,000  Level Denver Center
09:58AM 42.9447 -104.6447 275° West 440 506 47,000  Level Denver Center
09:59AM 42.9558 -104.8311 275° West 443 510 47,000  Level Denver Center
10:00AM 42.9642 -104.9903 274° West 443 510 47,000  Level Denver Center
10:01AM 42.9750 -105.1767 275° West 443 510 47,000  Level Denver Center
10:02AM 42.9842 -105.3378 275° West 447 514 47,000  Level Denver Center
10:03AM 42.9928 -105.5256 274° West 447 514 47,000  Level Denver Center
10:04AM 43.0011 -105.6847 274° West 442 509 47,000  Level Denver Center
10:05AM 43.0097 -105.8436 274° West 440 506 47,000  Level Denver Center
10:06AM 43.0194 -106.0328 274° West 450 518 47,000  Level Denver Center
10:07AM 43.0256 -106.1917 273° West 440 506 47,000  Level Denver Center
10:08AM 43.0353 -106.3767 274° West 439 505 47,000  Level Denver Center
10:09AM 43.0414 -106.5347 273° West 438 504 47,000  Level Denver Center
10:10AM 43.0494 -106.7208 273° West 440 506 47,000  Level Denver Center
10:11AM 43.0556 -106.8789 273° West 434 499 47,000  Level Salt Lake Center
10:12AM 43.0617 -107.0394 273° West 431 496 47,000  Level Salt Lake Center
10:13AM 43.0681 -107.2039 273° West 435 501 47,000  Level Salt Lake Center
10:14AM 43.0747 -107.3714 273° West 442 509 47,000  Level Salt Lake Center
10:15AM 43.0800 -107.5339 273° West 432 497 47,000 -60 Level Salt Lake Center
10:16AM 43.0864 -107.6978 273° West 433 498 46,900  Descending Salt Lake Center
10:18AM 43.0919 -107.8936 272° West 430 495 47,000  Climbing Salt Lake Center
10:19AM 43.0972 -108.0606 273° West 438 504 47,000  Level Salt Lake Center
10:20AM 43.1033 -108.2264 273° West 439 505 47,000  Level Salt Lake Center
10:21AM 43.1072 -108.3908 272° West 434 499 47,000  Level Salt Lake Center
10:22AM 43.1119 -108.5556 272° West 433 498 47,000  Level Salt Lake Center
10:23AM 43.1158 -108.7208 272° West 434 499 47,000  Level Salt Lake Center
10:24AM 43.1217 -108.9236 272° West 444 511 47,000  Level Salt Lake Center
10:25AM 43.1247 -109.0956 271° West 451 519 47,000  Level Salt Lake Center
10:26AM 43.1286 -109.2686 272° West 455 524 47,000  Level Salt Lake Center
10:27AM 43.1317 -109.4344 272° West 441 507 47,000  Level Salt Lake Center
10:28AM 43.1347 -109.5975 272° West 432 497 47,000  Level Salt Lake Center
10:29AM 43.1369 -109.7675 271° West 443 510 47,000  Level Salt Lake Center
10:30AM 43.1400 -109.9625 271° West 430 495 47,000  Level Salt Lake Center
10:31AM 43.1428 -110.1169 271° West 424 488 47,000  Level Salt Lake Center
10:32AM 43.1442 -110.2772 271° West 436 502 47,000  Level Salt Lake Center
10:33AM 43.1458 -110.4628 271° West 436 502 47,000  Level Salt Lake Center
10:34AM 43.1472 -110.6164 271° West 426 490 47,000  Level Salt Lake Center
10:35AM 43.1481 -110.8000 270° West 430 495 47,000 -60 Level Salt Lake Center
10:36AM 43.1503 -110.9608 271° West 438 504 46,900 -540 Descending Salt Lake Center
10:37AM 43.1508 -111.1472 270° West 438 504 46,000 -960 Descending Salt Lake Center
10:38AM 43.1514 -111.3039 270° West 432 497 45,000 -1,020 Descending Salt Lake Center
10:39AM 43.1519 -111.4753 270° West 407 468 43,900 -1,140 Descending Salt Lake Center
10:40AM 43.1519 -111.6281 270° West 415 478 42,700 -1,320 Descending Salt Lake Center
10:41AM 43.1514 -111.7831 270° West 421 484 41,200 -1,500 Descending Salt Lake Center
10:42AM 43.1506 -111.9653 270° West 426 490 39,600 -1,500 Descending Salt Lake Center
10:43AM 43.1500 -112.1217 270° West 428 493 38,100 -2,040 Descending Salt Lake Center
10:44AM 43.1503 -112.3061 270° West 431 496 35,500 -2,520 Descending Salt Lake Center
10:45AM 43.1481 -112.4656 269° West 436 502 32,900 -2,760 Descending Salt Lake Center
10:46AM 43.1456 -112.6525 269° West 439 505 29,900 -2,760 Descending Salt Lake Center
10:48AM 43.1456 -112.8200 270° West 452 520 27,300 -2,820 Descending Salt Lake Center
10:49AM 43.1422 -113.0075 269° West 445 512 24,100 -2,880 Descending Salt Lake Center
10:50AM 43.1406 -113.1631 269° West 432 497 21,400 -2,820 Descending Salt Lake Center
10:51AM 43.1367 -113.3394 268° West 420 483 18,300 -2,580 Descending Salt Lake Center
10:52AM 43.1353 -113.4819 269° West 402 463 16,100 -2,100 Descending Salt Lake Center
10:53AM 43.1328 -113.6211 269° West 343 395 14,000 -2,040 Descending Salt Lake Center
10:54AM 43.1306 -113.7269 268° West 304 350 12,000 -1,020 Descending Salt Lake Center
10:55AM 43.1286 -113.8283 269° West 285 328 12,000 -240 Level Salt Lake Center
10:56AM 43.1547 -113.9511 286° West 298 343 11,600 -420 Descending Salt Lake Center